Time;durP1;ratioP1;P1;durP2;ratioP2;P2;SDS_P1;SDS_P2;PMS_P1;PMS_P2;Temp;Humidity;BMP_temperature;BMP_pressure;BME280_temperature;BME280_humidity;BME280_pressure;Samples;Min_cycle;Max_cycle;Signal;HPM_P1;HPM_P2
2022/06/16 00:01:04;;;;;;;18.17;13.57;;;;;;;23.14;61.35;100114.09;5089234;28;20131;-70
2022/06/16 00:03:31;;;;;;;18.40;15.65;;;;;;;23.12;61.25;100116.53;5076071;28;20132;-68
2022/06/16 00:05:58;;;;;;;16.98;12.85;;;;;;;23.07;61.35;100108.28;5088156;28;20410;-68
2022/06/16 00:08:25;;;;;;;23.23;13.73;;;;;;;22.86;61.75;100074.47;5085548;28;20088;-69
2022/06/16 00:13:39;;;;;;;17.05;12.52;;;;;;;22.93;62.53;100080.31;5081605;28;20131;-69
2022/06/16 00:16:07;;;;;;;18.35;13.95;;;;;;;22.93;62.35;100069.75;5087556;28;20506;-68
2022/06/16 00:18:35;;;;;;;14.77;13.35;;;;;;;22.88;62.33;100072.06;5087608;28;20044;-70
2022/06/16 00:21:02;;;;;;;15.65;12.73;;;;;;;22.83;62.40;100046.75;5077992;28;20076;-70
2022/06/16 00:23:29;;;;;;;16.02;13.75;;;;;;;22.86;62.06;100048.84;5089183;28;20052;-70
2022/06/16 00:26:04;;;;;;;14.30;12.90;;;;;;;22.99;62.30;100061.75;5088257;28;20490;-69
2022/06/16 00:28:31;;;;;;;20.85;14.25;;;;;;;22.87;62.15;100051.31;5086037;28;20471;-69
2022/06/16 00:31:04;;;;;;;14.70;12.45;;;;;;;22.91;62.06;100043.66;5088340;28;20127;-70
2022/06/16 00:33:31;;;;;;;14.57;13.20;;;;;;;22.91;61.87;100046.53;5080340;28;20045;-69
2022/06/16 00:35:58;;;;;;;23.60;12.30;;;;;;;22.92;61.92;100045.34;5088937;28;20079;-68
2022/06/16 00:38:25;;;;;;;17.55;12.35;;;;;;;22.87;61.88;100037.09;5080796;28;20079;-69
2022/06/16 00:40:52;;;;;;;21.45;10.55;;;;;;;23.01;61.59;100055.66;5090176;28;20476;-69
2022/06/16 00:43:19;;;;;;;12.95;10.82;;;;;;;22.96;61.68;100050.28;5077510;28;20082;-69
2022/06/16 00:45:59;;;;;;;12.52;10.45;;;;;;;22.79;61.71;100018.19;5088238;28;20105;-70
2022/06/16 00:48:35;;;;;;;12.90;11.73;;;;;;;22.87;61.47;100037.09;5080882;28;20048;-70
2022/06/16 00:51:09;;;;;;;19.17;13.15;;;;;;;22.87;61.55;100053.31;5089042;28;20123;-72
2022/06/16 00:53:38;;;;;;;14.25;11.23;;;;;;;22.79;62.16;100052.38;5077766;28;20139;-70
2022/06/16 00:56:07;;;;;;;12.30;11.10;;;;;;;22.78;61.67;100053.56;5079620;28;20044;-69
2022/06/16 00:58:38;;;;;;;17.08;13.00;;;;;;;22.83;62.13;100052.44;5080520;28;20285;-70
2022/06/16 01:01:07;;;;;;;18.90;12.60;;;;;;;22.82;62.25;100050.78;5080530;28;20108;-69
2022/06/16 01:06:28;;;;;;;19.92;11.43;;;;;;;22.82;61.71;100054.47;5087866;28;20464;-69
2022/06/16 01:09:09;;;;;;;14.38;10.02;;;;;;;22.73;61.27;100031.09;5079517;28;20076;-69
2022/06/16 01:15:14;;;;;;;19.00;11.40;;;;;;;22.92;60.63;100068.13;5088838;28;20076;-70
2022/06/16 01:17:50;;;;;;;19.45;12.98;;;;;;;23.02;60.14;100074.41;5087733;28;20388;-70
2022/06/16 01:20:54;;;;;;;14.55;12.23;;;;;;;23.03;60.26;100062.63;5092122;28;20052;-71
2022/06/16 01:23:58;;;;;;;19.38;12.18;;;;;;;23.09;59.75;100071.69;5081811;28;20526;-70
2022/06/16 01:26:59;;;;;;;12.40;11.13;;;;;;;23.10;59.84;100057.06;5077362;28;20139;-69
2022/06/16 01:29:37;;;;;;;15.48;11.20;;;;;;;23.13;59.70;100055.50;5087188;28;20135;-70
2022/06/16 01:32:12;;;;;;;18.40;12.40;;;;;;;23.16;59.99;100064.13;5085261;28;20083;-71
2022/06/16 01:35:12;;;;;;;22.70;12.77;;;;;;;23.22;60.01;100063.81;5080132;28;20823;-71
2022/06/16 01:37:50;;;;;;;18.27;11.25;;;;;;;23.30;59.34;100057.84;5085589;28;20152;-72
2022/06/16 01:40:17;;;;;;;20.30;12.23;;;;;;;23.46;59.61;100085.44;5091074;28;20076;-71
2022/06/16 01:42:50;;;;;;;20.50;13.55;;;;;;;23.46;59.43;100080.53;5085338;28;20110;-70
2022/06/16 01:45:30;;;;;;;16.05;11.52;;;;;;;23.25;59.75;100052.50;5082119;28;20090;-72
2022/06/16 01:47:59;;;;;;;21.55;13.38;;;;;;;23.41;60.07;100067.41;5084652;28;20040;-71
2022/06/16 01:50:34;;;;;;;17.60;13.55;;;;;;;23.29;59.54;100055.41;5092359;28;20474;-71
2022/06/16 01:53:06;;;;;;;23.90;13.07;;;;;;;23.37;59.85;100077.94;5086917;28;20131;-70
2022/06/16 01:55:46;;;;;;;20.10;12.48;;;;;;;23.36;59.75;100076.28;5086204;28;20129;-71
2022/06/16 01:58:21;;;;;;;19.65;12.65;;;;;;;23.38;59.95;100073.06;5078198;28;20109;-71
2022/06/16 02:00:50;;;;;;;21.52;15.85;;;;;;;23.38;59.61;100079.59;5088550;28;20506;-70
2022/06/16 02:03:23;;;;;;;26.00;13.45;;;;;;;23.37;60.21;100088.50;5084018;28;20067;-71
2022/06/16 02:05:55;;;;;;;16.08;13.02;;;;;;;23.37;60.11;100088.50;5081243;28;20121;-70
2022/06/16 02:08:28;;;;;;;21.77;14.27;;;;;;;23.30;59.95;100080.66;5086168;28;20087;-70
2022/06/16 02:11:02;;;;;;;18.85;12.38;;;;;;;23.16;60.22;100060.44;5083073;28;20080;-69
2022/06/16 02:13:36;;;;;;;21.52;12.93;;;;;;;23.33;60.14;100099.03;5087397;28;20110;-69
2022/06/16 02:16:18;;;;;;;22.40;13.40;;;;;;;23.18;60.73;100075.16;5081344;28;20139;-69
2022/06/16 02:18:50;;;;;;;19.25;12.52;;;;;;;23.12;60.79;100091.72;5078735;28;20558;-70
2022/06/16 02:21:31;;;;;;;30.13;15.35;;;;;;;23.10;60.96;100107.53;5075965;28;20083;-70
2022/06/16 02:23:59;;;;;;;19.38;14.13;;;;;;;22.97;61.72;100086.09;5088449;28;20130;-68
2022/06/16 02:26:27;;;;;;;15.45;13.43;;;;;;;23.02;62.03;100119.97;5085519;28;20094;-68
2022/06/16 02:28:57;;;;;;;20.55;12.98;;;;;;;22.97;61.90;100135.31;5085298;28;20123;-68
2022/06/16 02:31:26;;;;;;;24.05;13.65;;;;;;;22.90;62.37;100135.13;5080325;28;20044;-68
2022/06/16 02:34:12;;;;;;;13.65;12.40;;;;;;;22.67;63.76;100137.91;5078066;28;20059;-69
2022/06/16 02:36:53;;;;;;;17.25;13.80;;;;;;;22.70;63.77;100140.00;5080258;28;20083;-69
2022/06/16 02:39:29;;;;;;;13.55;12.18;;;;;;;22.66;64.13;100156.16;5083423;28;20526;-69
2022/06/16 02:42:13;;;;;;;18.58;12.57;;;;;;;22.59;63.92;100147.47;5087073;28;20083;-68
2022/06/16 02:45:02;;;;;;;19.80;13.00;;;;;;;22.58;64.13;100143.00;5071773;28;20060;-68
2022/06/16 02:47:57;;;;;;;23.70;12.93;;;;;;;22.52;64.33;100155.84;5080559;28;20067;-69
2022/06/16 02:50:55;;;;;;;19.38;13.43;;;;;;;22.41;64.09;100149.91;5084946;28;20135;-68
2022/06/16 02:54:23;;;;;;;16.48;12.20;;;;;;;22.50;64.18;100149.72;5078548;28;20076;-69
2022/06/16 02:57:01;;;;;;;20.77;12.38;;;;;;;22.46;64.38;100155.31;5082526;28;20511;-68
2022/06/16 02:59:36;;;;;;;15.35;13.02;;;;;;;22.38;64.13;100147.81;5075436;28;20056;-68
2022/06/16 03:02:08;;;;;;;19.35;14.63;;;;;;;22.26;64.41;100151.59;5079994;28;20131;-69
2022/06/16 03:04:41;;;;;;;20.00;12.50;;;;;;;22.33;64.34;100168.84;5073727;28;20948;-70
2022/06/16 03:07:14;;;;;;;20.90;13.13;;;;;;;22.30;64.26;100177.28;5085121;28;20119;-69
2022/06/16 03:09:41;;;;;;;15.85;13.18;;;;;;;22.22;64.38;100167.72;5083549;28;20131;-68
2022/06/16 03:12:11;;;;;;;20.10;14.40;;;;;;;22.15;64.43;100176.94;5086204;28;20084;-68
2022/06/16 03:14:38;;;;;;;;;;;;;;;21.99;65.22;100179.75;5084469;28;20048;-67
2022/06/16 03:17:07;;;;;;;12.95;11.50;;;;;;;22.12;64.76;100193.84;5075194;28;20024;-67
2022/06/16 03:19:34;;;;;;;16.42;12.50;;;;;;;21.99;64.95;100184.63;5083501;28;20079;-69
2022/06/16 03:22:02;;;;;;;15.95;12.20;;;;;;;21.81;65.32;100184.13;5086993;28;20548;-70
2022/06/16 03:24:29;;;;;;;17.88;12.63;;;;;;;21.90;64.98;100230.28;5076835;28;20150;-70
2022/06/16 03:26:56;;;;;;;18.48;13.82;;;;;;;21.68;65.73;100208.97;5086479;28;20498;-69
2022/06/16 03:29:23;;;;;;;17.33;13.23;;;;;;;21.57;66.63;100224.06;5086302;28;20099;-69
2022/06/16 03:31:50;;;;;;;22.17;14.18;;;;;;;21.48;66.77;100225.06;5085931;28;20119;-68
2022/06/16 03:34:17;;;;;;;17.92;12.80;;;;;;;21.50;66.71;100225.53;5083366;28;20051;-68
2022/06/16 03:36:44;;;;;;;13.27;11.30;;;;;;;21.36;67.27;100236.47;5089245;28;20128;-69
2022/06/16 03:39:11;;;;;;;13.90;12.32;;;;;;;21.33;67.64;100242.84;5084449;28;20040;-68
2022/06/16 03:41:38;;;;;;;21.10;12.15;;;;;;;21.38;67.60;100251.16;5091338;28;20088;-70
2022/06/16 03:44:05;;;;;;;17.75;12.35;;;;;;;21.27;67.32;100241.47;5079669;28;20136;-69
2022/06/16 03:46:32;;;;;;;23.05;12.90;;;;;;;21.33;67.41;100248.50;5080923;28;20054;-69
2022/06/16 03:48:59;;;;;;;24.52;12.85;;;;;;;21.43;67.30;100258.56;5090263;28;20596;-69
2022/06/16 03:51:26;;;;;;;15.27;11.68;;;;;;;21.26;67.27;100259.66;5091829;28;20126;-69
2022/06/16 03:53:53;;;;;;;12.43;11.23;;;;;;;21.49;66.82;100285.53;5093378;28;20562;-69
2022/06/16 03:56:20;;;;;;;22.80;12.68;;;;;;;21.26;66.67;100249.16;5087876;28;20514;-69
2022/06/16 03:58:51;;;;;;;22.67;14.32;;;;;;;21.56;67.07;100279.25;5075021;28;20167;-69
2022/06/16 04:01:19;;;;;;;18.55;12.20;;;;;;;21.65;67.01;100289.28;5083538;28;20127;-69
2022/06/16 04:04:01;;;;;;;21.00;15.80;;;;;;;21.57;66.78;100276.03;5080636;28;20063;-68
2022/06/16 04:06:31;;;;;;;15.07;13.55;;;;;;;21.51;67.33;100288.88;5083885;28;20087;-68
2022/06/16 04:08:59;;;;;;;18.95;13.32;;;;;;;21.48;67.00;100269.69;5075311;28;20135;-69
2022/06/16 04:11:32;;;;;;;24.50;17.25;;;;;;;21.48;66.94;100279.03;5082727;28;20355;-68
2022/06/16 04:14:09;;;;;;;35.65;15.30;;;;;;;21.62;66.67;100289.19;5090828;28;20083;-69
2022/06/16 04:16:39;;;;;;;32.65;16.08;;;;;;;21.62;66.67;100294.84;5080184;28;20091;-68
2022/06/16 04:19:07;;;;;;;24.77;14.05;;;;;;;21.59;66.77;100306.94;5079381;28;20469;-69
2022/06/16 04:21:37;;;;;;;23.45;13.60;;;;;;;21.57;67.01;100292.25;5086916;28;20137;-69
2022/06/16 04:24:04;;;;;;;26.27;14.38;;;;;;;21.68;66.61;100307.63;5087087;28;20123;-69
2022/06/16 04:26:33;;;;;;;24.67;13.52;;;;;;;21.48;67.00;100287.56;5086371;28;20056;-69
2022/06/16 04:29:00;;;;;;;29.80;15.18;;;;;;;21.68;66.64;100310.47;5075761;28;20509;-69
2022/06/16 04:31:27;;;;;;;28.77;13.65;;;;;;;21.71;66.63;100323.97;5081907;28;20076;-69
2022/06/16 04:33:54;;;;;;;34.25;14.07;;;;;;;;;;5082009;28;20470;-69
2022/06/16 04:36:20;;;;;;;28.70;13.93;;;;;;;21.62;66.71;100326.13;5077705;28;20119;-69
2022/06/16 04:38:48;;;;;;;30.35;12.55;;;;;;;21.55;66.85;100328.75;5087628;28;20127;-68
2022/06/16 04:41:16;;;;;;;22.13;12.95;;;;;;;21.60;66.64;100334.16;5086292;28;20127;-68
2022/06/16 04:43:43;;;;;;;25.17;13.25;;;;;;;21.45;66.90;100325.22;5083950;28;20135;-69
2022/06/16 04:46:16;;;;;;;24.48;11.90;;;;;;;21.66;66.40;100364.81;5089039;28;20190;-69
2022/06/16 04:48:44;;;;;;;29.92;14.30;;;;;;;21.41;66.17;100329.16;5089595;28;20040;-70
2022/06/16 04:51:14;;;;;;;27.58;12.73;;;;;;;21.59;66.53;100370.28;5080983;28;20118;-68
2022/06/16 04:53:41;;;;;;;29.80;12.75;;;;;;;21.69;66.21;100395.34;5079385;28;20083;-69
2022/06/16 04:56:08;;;;;;;32.78;12.70;;;;;;;21.66;66.08;100386.72;5090496;28;20557;-69
2022/06/16 04:58:35;;;;;;;24.55;11.10;;;;;;;21.67;66.04;100405.41;5087875;28;20087;-67
2022/06/16 05:01:04;;;;;;;30.88;12.07;;;;;;;21.68;65.93;100399.38;5088216;28;20079;-67
2022/06/16 05:03:48;;;;;;;25.08;15.02;;;;;;;21.67;65.90;100416.78;5083035;28;20048;-69
2022/06/16 05:06:16;;;;;;;24.58;12.27;;;;;;;21.67;65.81;100411.09;5083344;28;20611;-69
2022/06/16 05:08:43;;;;;;;21.52;11.55;;;;;;;21.70;65.68;100424.59;5082692;28;20127;-67
2022/06/16 05:11:09;;;;;;;20.80;11.65;;;;;;;21.56;65.89;100415.63;5082033;28;20143;-70
2022/06/16 05:13:36;;;;;;;25.70;13.80;;;;;;;21.71;66.00;100431.97;5086328;28;20127;-69
2022/06/16 05:16:04;;;;;;;33.63;14.00;;;;;;;21.74;66.11;100431.22;5080458;28;20084;-69
2022/06/16 05:18:31;;;;;;;27.60;12.15;;;;;;;21.72;65.91;100437.28;5079326;28;20048;-69
2022/06/16 05:21:09;;;;;;;31.38;12.13;;;;;;;21.67;66.15;100439.53;5077641;28;20135;-68
2022/06/16 05:23:37;;;;;;;21.27;11.50;;;;;;;21.58;66.05;100431.16;5088721;28;20142;-69
2022/06/16 05:26:05;;;;;;;20.83;12.93;;;;;;;21.63;66.17;100432.91;5088071;28;20044;-68
2022/06/16 05:28:33;;;;;;;25.40;13.00;;;;;;;21.70;65.60;100451.00;5083607;28;20135;-68
2022/06/16 05:31:00;;;;;;;29.35;10.80;;;;;;;21.63;65.86;100452.78;5079525;28;20442;-69
2022/06/16 05:33:27;;;;;;;24.88;13.07;;;;;;;21.68;65.81;100458.25;5082804;28;20131;-68
2022/06/16 05:35:59;;;;;;;26.50;13.13;;;;;;;21.58;65.72;100430.31;5084275;28;20075;-67
2022/06/16 05:38:27;;;;;;;36.03;12.85;;;;;;;21.63;66.16;100450.78;5079029;28;20040;-67
2022/06/16 05:40:58;;;;;;;21.73;11.38;;;;;;;21.69;65.91;100442.84;5080832;28;20130;-67
2022/06/16 05:43:25;;;;;;;31.48;12.90;;;;;;;21.78;65.73;100466.28;5079590;28;20052;-68
2022/06/16 05:45:52;;;;;;;28.27;12.93;;;;;;;21.85;65.69;100480.72;5082988;28;20151;-68
2022/06/16 05:48:20;;;;;;;24.17;11.25;;;;;;;21.88;65.42;100484.81;5087654;28;20093;-68
2022/06/16 05:50:47;;;;;;;27.58;10.35;;;;;;;21.77;65.78;100471.09;5085627;28;20945;-67
2022/06/16 05:53:14;;;;;;;22.33;10.65;;;;;;;21.95;65.27;100497.28;5091199;28;20495;-67
2022/06/16 05:55:41;;;;;;;21.63;10.32;;;;;;;21.88;65.10;100474.31;5092698;28;20431;-69
2022/06/16 05:58:07;;;;;;;20.80;9.05;;;;;;;21.95;64.88;100474.53;5085056;28;20183;-68
2022/06/16 06:00:35;;;;;;;16.50;8.88;;;;;;;21.84;65.10;100453.44;5079526;28;20148;-68
2022/06/16 06:03:01;;;;;;;23.15;11.63;;;;;;;22.08;65.01;100492.34;5083834;28;20084;-68
2022/06/16 06:05:29;;;;;;;17.70;10.05;;;;;;;21.99;65.04;100481.16;5076069;28;20149;-66
2022/06/16 06:16:25;;;;;;;17.50;10.05;;;;;;;22.12;64.90;100507.53;5079877;28;20132;-68
2022/06/16 06:18:54;;;;;;;22.83;10.23;;;;;;;22.15;64.53;100489.78;5075854;28;20170;-68
2022/06/16 06:21:58;;;;;;;18.85;9.02;;;;;;;22.14;65.03;100493.75;5077768;28;20143;-68
2022/06/16 06:24:09;;;;;;;22.13;10.20;;;;;;;21.95;65.01;100470.88;5077574;28;20135;-68
2022/06/16 06:26:37;;;;;;;23.33;10.93;;;;;;;22.07;64.65;100479.34;5084567;28;20139;-69
2022/06/16 06:29:05;;;;;;;22.02;10.85;;;;;;;22.31;64.50;100486.16;5083181;28;20131;-69
2022/06/16 06:31:31;;;;;;;17.05;10.90;;;;;;;22.35;63.99;100501.31;5078831;28;20089;-68
2022/06/16 06:33:58;;;;;;;22.95;11.20;;;;;;;22.44;63.96;100514.19;5087499;28;20043;-68
2022/06/16 06:36:25;;;;;;;23.05;10.23;;;;;;;22.42;63.87;100516.56;5080270;28;20072;-69
2022/06/16 06:38:52;;;;;;;19.00;11.15;;;;;;;22.35;63.86;100504.97;5089383;28;20079;-69
2022/06/16 06:41:19;;;;;;;16.98;11.15;;;;;;;22.45;63.90;100509.34;5085823;28;20147;-68
2022/06/16 06:43:46;;;;;;;19.05;13.35;;;;;;;22.52;63.73;100503.03;5085232;28;20574;-68
2022/06/16 06:46:14;;;;;;;20.42;10.20;;;;;;;22.57;63.90;100517.00;5077314;28;20053;-69
2022/06/16 06:48:41;;;;;;;21.45;11.73;;;;;;;22.63;63.30;100515.53;5083809;28;20051;-69
2022/06/16 06:51:08;;;;;;;30.00;13.57;;;;;;;22.69;63.10;100525.47;5081180;28;20567;-69
2022/06/16 06:53:35;;;;;;;17.80;10.13;;;;;;;22.76;63.51;100524.84;5084063;28;20138;-69
2022/06/16 06:56:02;;;;;;;18.90;11.77;;;;;;;22.81;62.80;100524.59;5093176;28;20415;-69
2022/06/16 06:58:32;;;;;;;21.52;12.05;;;;;;;22.83;62.85;100520.16;5074874;28;20102;-69
2022/06/16 07:01:01;;;;;;;22.95;10.70;;;;;;;22.95;62.70;100533.56;5079167;28;20053;-69
2022/06/16 07:03:29;;;;;;;23.90;11.00;;;;;;;22.97;62.21;100516.09;5077349;28;20094;-69
2022/06/16 07:05:57;;;;;;;18.15;11.07;;;;;;;22.93;62.35;100519.66;5080245;28;20076;-69
2022/06/16 07:08:23;;;;;;;20.80;10.75;;;;;;;23.10;62.31;100529.06;5076662;28;20080;-69
2022/06/16 07:10:50;;;;;;;22.77;10.85;;;;;;;23.01;62.52;100522.69;5077758;28;20131;-69
2022/06/16 07:13:17;;;;;;;20.33;9.93;;;;;;;23.05;61.83;100510.22;5081319;28;20155;-69
2022/06/16 07:15:44;;;;;;;19.83;12.50;;;;;;;23.25;61.59;100528.25;5078137;28;20163;-69
2022/06/16 07:18:11;;;;;;;18.10;11.98;;;;;;;23.51;61.39;100544.78;5078066;28;20044;-68
2022/06/16 07:20:38;;;;;;;18.08;10.00;;;;;;;23.66;61.43;100531.72;5081857;28;20142;-69
2022/06/16 07:23:05;;;;;;;12.95;8.95;;;;;;;23.76;60.69;100516.94;5087147;28;20518;-69
2022/06/16 07:25:32;;;;;;;20.27;9.40;;;;;;;23.73;60.86;100522.56;5080539;28;20131;-69
2022/06/16 07:28:00;;;;;;;22.85;10.07;;;;;;;23.91;60.23;100523.78;5084247;28;20124;-69
2022/06/16 07:30:27;;;;;;;18.75;9.18;;;;;;;23.98;60.33;100541.06;5085091;28;20087;-69
2022/06/16 07:32:54;;;;;;;16.92;10.15;;;;;;;23.98;59.88;100534.53;5083842;28;20440;-68
2022/06/16 07:35:22;;;;;;;13.77;9.02;;;;;;;24.06;59.98;100528.59;5086820;28;20048;-69
2022/06/16 07:37:50;;;;;;;21.15;9.80;;;;;;;24.23;59.83;100535.91;5085401;28;20079;-69
2022/06/16 07:40:19;;;;;;;13.23;9.13;;;;;;;24.42;58.95;100538.00;5075655;28;20079;-69
2022/06/16 07:42:46;;;;;;;17.58;9.98;;;;;;;24.27;59.21;100518.88;5077831;28;20127;-73
2022/06/16 07:45:14;;;;;;;12.10;9.23;;;;;;;24.45;58.73;100517.28;5077698;28;20087;-69
2022/06/16 07:47:42;;;;;;;25.40;9.75;;;;;;;24.64;58.45;100499.28;5084134;28;20123;-71
2022/06/16 07:50:09;;;;;;;24.70;11.27;;;;;;;25.18;57.94;100509.72;5087170;28;20088;-68
2022/06/16 07:52:36;;;;;;;14.57;10.10;;;;;;;25.75;57.14;100512.72;5081978;28;20139;-68
2022/06/16 07:55:05;;;;;;;13.15;8.40;;;;;;;26.15;56.23;100500.66;5079917;28;20598;-69
2022/06/16 07:57:34;;;;;;;12.68;9.82;;;;;;;26.48;55.88;100515.44;5073051;28;20147;-68
2022/06/16 08:00:02;;;;;;;11.57;9.27;;;;;;;26.72;55.14;100514.91;5081825;28;20103;-68
2022/06/16 08:02:29;;;;;;;20.08;9.00;;;;;;;26.80;54.66;100527.25;5079554;28;20461;-68
2022/06/16 08:04:56;;;;;;;16.38;9.75;;;;;;;26.84;54.33;100519.53;5076551;28;20105;-69
2022/06/16 08:07:23;;;;;;;14.82;9.13;;;;;;;26.94;53.58;100524.56;5081556;28;20052;-68
2022/06/16 08:09:50;;;;;;;17.17;8.75;;;;;;;26.96;53.46;100519.25;5073770;28;20040;-68
2022/06/16 08:12:19;;;;;;;20.05;13.80;;;;;;;26.91;53.58;100516.75;5074623;28;20131;-69
2022/06/16 08:14:48;;;;;;;13.25;11.48;;;;;;;26.86;53.35;100531.41;5075700;28;20176;-69
2022/06/16 08:17:20;;;;;;;17.65;9.55;;;;;;;26.72;53.31;100509.16;5088020;28;20691;-68
2022/06/16 08:19:47;;;;;;;14.38;12.88;;;;;;;26.70;53.50;100508.72;5100806;27;20131;-69
2022/06/16 08:22:15;;;;;;;17.73;9.90;;;;;;;26.57;53.67;100530.28;5107230;28;20475;-69
2022/06/16 08:24:43;;;;;;;24.85;10.77;;;;;;;26.36;53.77;100496.41;5079823;28;20101;-69
2022/06/16 08:27:11;;;;;;;16.70;10.35;;;;;;;26.11;53.75;100491.19;5098727;28;20087;-69
2022/06/16 08:29:41;;;;;;;18.30;9.23;;;;;;;26.22;53.84;100509.34;5105090;28;20071;-69
2022/06/16 08:32:11;;;;;;;25.38;10.68;;;;;;;26.22;53.65;100517.94;5086589;28;20128;-68
2022/06/16 08:34:38;;;;;;;15.20;10.88;;;;;;;26.07;53.51;100523.84;5092827;28;20048;-70
2022/06/16 08:37:05;;;;;;;19.05;9.38;;;;;;;25.87;53.49;100526.00;5091018;28;20075;-68
2022/06/16 08:39:33;;;;;;;19.13;9.60;;;;;;;25.79;54.14;100547.09;5089775;28;20044;-68
2022/06/16 08:42:10;;;;;;;16.65;9.48;;;;;;;25.53;53.81;100535.22;5093143;28;20086;-69
2022/06/16 08:44:51;;;;;;;19.05;9.45;;;;;;;25.48;53.92;100557.63;5091718;28;20487;-68
2022/06/16 08:47:20;;;;;;;26.27;11.10;;;;;;;25.41;54.42;100543.22;5089552;28;20080;-69
2022/06/16 08:50:22;;;;;;;17.90;10.52;;;;;;;25.32;54.74;100539.78;5095140;28;20138;-69
2022/06/16 08:53:33;;;;;;;23.65;10.05;;;;;;;25.26;54.95;100547.81;5098881;28;20134;-69
2022/06/16 08:56:05;;;;;;;18.38;8.80;;;;;;;25.21;55.05;100568.16;5041715;28;20610;-69
2022/06/16 08:59:02;;;;;;;22.52;11.77;;;;;;;25.13;55.11;100561.50;5085108;28;20073;-71
2022/06/16 09:01:38;;;;;;;18.23;9.40;;;;;;;25.21;54.92;100523.25;5064873;28;20055;-69
2022/06/16 09:04:24;;;;;;;16.02;10.90;;;;;;;25.34;54.61;100549.63;5085217;28;20047;-69
2022/06/16 09:07:01;;;;;;;14.43;11.18;;;;;;;25.48;54.50;100563.34;5103711;28;20437;-69
2022/06/16 09:10:14;;;;;;;25.33;10.27;;;;;;;25.58;54.94;100551.25;5089714;28;20079;-69
2022/06/16 09:12:47;;;;;;;25.45;10.55;;;;;;;25.53;54.76;100552.38;5080339;28;20135;-69
2022/06/16 09:15:33;;;;;;;22.00;9.75;;;;;;;25.48;54.67;100551.91;5087080;28;20562;-69
2022/06/16 09:18:34;;;;;;;17.38;9.70;;;;;;;25.18;54.66;100492.59;5079113;28;20076;-69
2022/06/16 09:21:20;;;;;;;22.90;12.02;;;;;;;25.61;54.59;100513.31;5089041;28;20075;-69
2022/06/16 09:24:09;;;;;;;20.65;9.77;;;;;;;25.78;54.38;100489.06;5092627;28;20455;-69
2022/06/16 09:27:01;;;;;;;17.10;9.53;;;;;;;25.87;53.91;100497.38;5084165;28;20519;-69
2022/06/16 09:29:34;;;;;;;14.93;9.48;;;;;;;25.81;53.74;100507.50;5095068;28;20534;-68
2022/06/16 09:32:11;;;;;;;16.35;8.80;;;;;;;25.81;53.56;100518.94;5092644;28;20084;-69
2022/06/16 09:35:02;;;;;;;22.08;10.88;;;;;;;25.76;53.86;100518.03;5088564;28;20090;-69
2022/06/16 09:38:08;;;;;;;15.23;12.35;;;;;;;25.88;53.88;100519.06;5104441;28;20144;-68
2022/06/16 09:40:39;;;;;;;22.02;10.82;;;;;;;26.02;53.08;100512.72;5087373;28;20144;-68
2022/06/16 09:43:32;;;;;;;16.10;11.65;;;;;;;26.06;53.16;100542.22;5079501;28;20131;-68
2022/06/16 09:46:13;;;;;;;9.57;8.43;;;;;;;25.93;52.87;100558.78;5071598;28;20107;-69
2022/06/16 09:48:47;;;;;;;11.57;8.50;;;;;;;26.00;52.73;100576.06;5078258;28;20048;-68
2022/06/16 09:51:22;;;;;;;10.07;7.72;;;;;;;25.87;52.91;100608.97;5075195;28;20076;-69
2022/06/16 09:54:01;;;;;;;13.60;9.15;;;;;;;25.77;52.91;100608.34;5073317;28;20131;-69
2022/06/16 09:56:37;;;;;;;;;;;;;;;25.68;53.82;100612.72;5075227;28;20049;-69
2022/06/16 09:59:14;;;;;;;11.40;8.38;;;;;;;25.69;52.97;100583.72;5074246;28;20015;-68
2022/06/16 10:01:47;;;;;;;8.95;8.02;;;;;;;25.79;52.71;100592.88;5075687;28;20139;-68
2022/06/16 10:04:14;;;;;;;14.10;8.30;;;;;;;25.69;52.85;100583.72;5080900;28;20513;-69
2022/06/16 10:07:03;;;;;;;9.55;8.32;;;;;;;25.82;52.88;100577.84;5077183;28;20089;-68
2022/06/16 10:09:50;;;;;;;8.65;7.88;;;;;;;25.82;52.56;100552.91;5071681;28;20083;-69
2022/06/16 10:12:32;;;;;;;9.38;8.40;;;;;;;25.97;52.29;100576.84;5071872;28;20131;-69
2022/06/16 10:15:22;;;;;;;10.65;8.05;;;;;;;25.89;52.24;100583.66;5080081;28;20056;-68
2022/06/16 10:17:51;;;;;;;9.13;8.10;;;;;;;25.86;52.32;100575.84;5065463;28;20503;-69
2022/06/16 10:20:21;;;;;;;10.35;8.63;;;;;;;25.61;52.42;100579.09;5071453;28;20048;-68
2022/06/16 10:23:12;;;;;;;14.07;9.48;;;;;;;25.34;52.73;100546.75;5071052;28;20057;-68
2022/06/16 10:25:45;;;;;;;11.55;9.43;;;;;;;25.61;52.50;100630.56;5086673;28;20128;-69
2022/06/16 10:28:28;;;;;;;14.27;8.75;;;;;;;25.43;52.77;100650.22;5079576;28;20182;-69
2022/06/16 10:30:58;;;;;;;10.18;8.73;;;;;;;25.25;53.41;100632.75;5072966;28;20114;-68
2022/06/16 10:33:29;;;;;;;;;;;;;;;24.90;53.62;100604.28;5071132;28;20106;-69
2022/06/16 10:36:04;;;;;;;10.18;8.88;;;;;;;24.80;54.16;100599.16;5079667;28;20400;-69
2022/06/16 10:38:42;;;;;;;13.18;11.50;;;;;;;24.66;53.72;100621.72;5072626;28;20539;-69
2022/06/16 10:41:23;;;;;;;10.77;8.35;;;;;;;24.68;54.21;100610.72;5072070;28;20127;-68
2022/06/16 10:43:53;;;;;;;10.48;9.48;;;;;;;24.87;54.36;100616.44;5083865;28;20143;-68
2022/06/16 10:46:24;;;;;;;11.82;9.60;;;;;;;24.97;53.85;100637.88;5081899;28;20053;-68
2022/06/16 10:48:56;;;;;;;12.55;9.65;;;;;;;24.78;53.84;100681.53;5070337;28;20403;-69
2022/06/16 10:51:28;;;;;;;15.65;9.45;;;;;;;24.80;54.33;100747.69;5075028;28;20052;-70
2022/06/16 10:54:14;;;;;;;10.95;8.52;;;;;;;24.53;54.19;100744.59;5079055;28;20490;-68
2022/06/16 10:56:45;;;;;;;11.25;9.00;;;;;;;24.48;54.70;100730.63;5076172;28;20520;-70
2022/06/16 10:59:28;;;;;;;15.00;9.32;;;;;;;24.48;54.84;100666.97;5072700;28;20364;-69
2022/06/16 11:01:59;;;;;;;22.48;9.68;;;;;;;24.65;54.76;100631.47;5075771;28;20047;-68
2022/06/16 11:04:35;;;;;;;18.35;9.50;;;;;;;24.89;54.73;100611.19;5083103;28;20536;-69
2022/06/16 11:07:03;;;;;;;13.02;9.40;;;;;;;25.19;54.38;100613.44;5080230;28;20096;-71
2022/06/16 11:09:33;;;;;;;12.10;8.52;;;;;;;25.33;54.25;100630.03;5086672;28;20504;-73
2022/06/16 11:12:04;;;;;;;14.88;9.52;;;;;;;25.29;53.90;100610.78;5072572;28;20056;-70
2022/06/16 11:14:36;;;;;;;11.75;8.98;;;;;;;25.38;53.80;100664.03;5076340;28;20079;-69
2022/06/16 11:17:09;;;;;;;20.17;10.80;;;;;;;25.34;54.04;100717.47;5070711;28;20530;-68
2022/06/16 11:19:43;;;;;;;16.08;9.95;;;;;;;25.19;54.00;100742.84;5076817;28;20044;-68
2022/06/16 11:22:24;;;;;;;10.35;9.02;;;;;;;25.04;54.19;100766.59;5073791;28;20177;-69
2022/06/16 11:25:05;;;;;;;11.93;10.57;;;;;;;24.79;54.43;100726.88;5079412;28;20445;-72
2022/06/16 11:28:01;;;;;;;13.05;9.18;;;;;;;24.90;54.04;100769.94;5076022;28;20044;-72
2022/06/16 11:30:31;;;;;;;18.73;9.88;;;;;;;24.82;54.04;100777.53;5073044;28;20087;-69
2022/06/16 11:32:59;;;;;;;14.60;9.30;;;;;;;24.61;54.51;100751.31;5076449;28;20101;-68
2022/06/16 11:35:55;;;;;;;21.27;10.15;;;;;;;24.69;54.76;100758.03;5075876;28;20075;-69
2022/06/16 11:38:33;;;;;;;15.25;11.50;;;;;;;24.80;54.12;100748.50;5081876;28;20047;-69
2022/06/16 11:41:07;;;;;;;15.05;10.90;;;;;;;24.80;54.24;100734.22;5073941;28;20499;-69
2022/06/16 11:44:03;;;;;;;14.93;9.43;;;;;;;24.72;54.60;100740.97;5082973;28;20047;-69
2022/06/16 11:46:44;;;;;;;19.65;10.63;;;;;;;24.72;54.45;100740.16;5052995;28;20063;-69
2022/06/16 11:49:36;;;;;;;16.90;11.63;;;;;;;24.68;54.73;100699.25;5086092;28;20091;-69
2022/06/16 11:52:12;;;;;;;11.82;10.45;;;;;;;24.65;55.13;100706.56;5100981;28;20130;-69
2022/06/16 11:54:41;;;;;;;15.07;10.27;;;;;;;24.63;55.39;100697.53;5087533;28;20083;-69
2022/06/16 11:57:16;;;;;;;;;;;;;;;24.48;55.30;100696.38;5085951;28;20283;-68
2022/06/16 12:00:04;;;;;;;21.67;10.30;;;;;;;24.47;55.75;100708.97;5082375;28;20365;-70